createdAt,value
2018-04-14T00:00:25.225Z,9.94
2018-04-14T00:01:53.573Z,9.95
2018-04-14T00:03:19.807Z,9.95
2018-04-14T00:04:47.254Z,9.92
2018-04-14T00:06:14.461Z,9.92
2018-04-14T00:07:42.540Z,9.90
2018-04-14T00:09:08.768Z,9.93
2018-04-14T00:10:36.174Z,9.96
2018-04-14T00:12:04.208Z,9.96
2018-04-14T00:13:30.659Z,9.90
2018-04-14T00:14:57.972Z,9.87
2018-04-14T00:16:25.437Z,9.84
2018-04-14T00:17:52.570Z,9.85
2018-04-14T00:19:19.818Z,9.84
2018-04-14T00:20:48.037Z,9.86
2018-04-14T00:22:14.289Z,9.85
2018-04-14T00:23:42.312Z,9.86
2018-04-14T00:25:08.985Z,9.85
2018-04-14T00:26:35.184Z,9.83
2018-04-14T00:28:03.524Z,9.82
2018-04-14T00:29:29.374Z,9.81
2018-04-14T00:30:56.640Z,9.82
2018-04-14T00:32:23.905Z,9.83
2018-04-14T00:33:51.900Z,9.83
2018-04-14T00:35:20.909Z,9.83
2018-04-14T00:36:45.085Z,9.85
2018-04-14T00:38:13.087Z,9.87
2018-04-14T00:39:39.324Z,9.88
2018-04-14T00:41:06.686Z,9.88
2018-04-14T00:42:34.086Z,9.90
2018-04-14T00:44:01.237Z,9.91
2018-04-14T00:45:28.316Z,9.93
2018-04-14T00:46:56.535Z,9.93
2018-04-14T00:48:23.748Z,9.95
2018-04-14T00:51:16.980Z,9.99
2018-04-14T00:52:44.081Z,10.01
2018-04-14T00:54:11.394Z,10.02
2018-04-14T00:55:38.650Z,10.06
2018-04-14T00:57:06.916Z,10.08
2018-04-14T00:58:33.026Z,10.11
2018-04-14T01:00:01.431Z,10.13
2018-04-14T01:01:28.763Z,10.16
2018-04-14T01:02:56.006Z,10.18
2018-04-14T01:04:22.296Z,10.19
2018-04-14T01:05:49.520Z,10.20
2018-04-14T01:07:17.755Z,10.21
2018-04-14T01:08:45.039Z,10.22
2018-04-14T01:10:12.251Z,10.21
2018-04-14T01:11:38.794Z,10.22
2018-04-14T01:13:07.145Z,10.21
2018-04-14T01:14:33.696Z,10.19
2018-04-14T01:16:00.527Z,10.21
2018-04-14T01:17:27.803Z,10.21
2018-04-14T01:18:55.182Z,10.27
2018-04-14T01:20:23.674Z,10.34
2018-04-14T01:21:51.037Z,10.38
2018-04-14T01:23:17.256Z,10.41
2018-04-14T01:24:44.438Z,10.43
2018-04-14T01:26:11.756Z,10.46
2018-04-14T01:27:39.085Z,10.48
2018-04-14T01:29:06.387Z,10.50
2018-04-14T01:30:34.755Z,10.58
2018-04-14T01:32:00.748Z,10.68
2018-04-14T01:33:28.218Z,10.72
2018-04-14T01:34:55.320Z,10.76
2018-04-14T01:36:22.466Z,10.80
2018-04-14T01:37:49.599Z,10.83
2018-04-14T01:39:16.867Z,10.84
2018-04-14T01:40:44.026Z,10.86
2018-04-14T01:42:11.194Z,10.87
2018-04-14T01:43:39.650Z,10.89
2018-04-14T01:45:06.959Z,10.90
2018-04-14T01:46:33.237Z,10.91
2018-04-14T01:48:00.632Z,10.90
2018-04-14T01:49:28.056Z,10.86
2018-04-14T01:50:55.407Z,10.83
2018-04-14T01:52:23.786Z,10.81
2018-04-14T01:53:50.019Z,10.80
2018-04-14T01:55:18.427Z,10.80
2018-04-14T01:56:44.568Z,10.80
2018-04-14T01:58:11.830Z,10.78
2018-04-14T01:59:40.138Z,10.77
2018-04-14T02:01:06.335Z,10.73
2018-04-14T02:02:33.784Z,10.70
2018-04-14T02:04:02.170Z,10.63
2018-04-14T02:05:28.597Z,10.60
2018-04-14T02:06:56.036Z,10.57
2018-04-14T02:08:23.266Z,10.53
2018-04-14T02:09:50.691Z,10.52
2018-04-14T02:11:17.894Z,10.51
2018-04-14T02:12:45.271Z,10.49
2018-04-14T02:14:12.641Z,10.44
2018-04-14T02:15:39.891Z,10.39
2018-04-14T02:17:07.222Z,10.36
2018-04-14T02:18:34.523Z,10.34
2018-04-14T02:20:02.058Z,10.32
2018-04-14T02:21:30.278Z,10.28
2018-04-14T02:22:56.725Z,10.26
2018-04-14T02:24:25.028Z,10.25
2018-04-14T02:25:52.328Z,10.23
2018-04-14T02:27:18.633Z,10.21
2018-04-14T02:28:45.977Z,10.24
2018-04-14T02:30:13.337Z,10.28
2018-04-14T02:31:40.768Z,10.25
2018-04-14T02:33:08.062Z,10.24
2018-04-14T02:34:36.304Z,10.22
2018-04-14T02:36:02.692Z,10.22
2018-04-14T02:37:30.889Z,10.19
2018-04-14T02:38:57.193Z,10.13
2018-04-14T02:40:24.645Z,10.08
2018-04-14T02:41:53.150Z,10.05
2018-04-14T02:43:19.734Z,10.04
2018-04-14T02:44:47.053Z,9.99
2018-04-14T02:46:14.228Z,9.96
2018-04-14T02:47:42.350Z,9.94
2018-04-14T02:49:08.442Z,9.91
2018-04-14T02:50:35.846Z,9.87
2018-04-14T02:52:04.064Z,9.82
2018-04-14T02:53:31.491Z,9.79
2018-04-14T02:54:57.780Z,9.77
2018-04-14T02:56:25.029Z,9.73
2018-04-14T02:57:52.300Z,9.70
2018-04-14T02:59:19.669Z,9.73
2018-04-14T03:00:48.056Z,9.78
2018-04-14T03:02:14.390Z,9.83
2018-04-14T03:03:42.767Z,9.88
2018-04-14T03:05:08.944Z,9.91
2018-04-14T03:06:36.263Z,9.94
2018-04-14T03:08:04.436Z,9.98
2018-04-14T03:09:30.740Z,10.00
2018-04-14T03:10:59.288Z,10.02
2018-04-14T03:12:26.621Z,10.04
2018-04-14T03:13:52.754Z,10.02
2018-04-14T03:15:20.070Z,10.02
2018-04-14T03:16:47.354Z,10.03
2018-04-14T03:18:14.709Z,10.04
2018-04-14T03:19:41.932Z,10.05
2018-04-14T03:21:09.247Z,10.07
2018-04-14T03:22:36.549Z,10.08
2018-04-14T03:24:03.964Z,10.10
2018-04-14T03:25:32.552Z,10.12
2018-04-14T03:26:59.803Z,10.13
2018-04-14T03:28:26.163Z,10.15
2018-04-14T03:29:53.478Z,10.18
2018-04-14T03:31:20.950Z,10.19
2018-04-14T03:32:48.214Z,10.21
2018-04-14T03:34:16.584Z,10.22
2018-04-14T03:35:42.922Z,10.23
2018-04-14T03:37:11.197Z,10.25
2018-04-14T03:38:37.393Z,10.27
2018-04-14T03:40:05.789Z,10.28
2018-04-14T03:41:33.120Z,10.28
2018-04-14T03:43:00.447Z,10.29
2018-04-14T03:44:27.614Z,10.32
2018-04-14T03:45:54.176Z,10.34
2018-04-14T03:47:21.398Z,10.32
2018-04-14T03:48:48.781Z,10.27
2018-04-14T03:50:16.133Z,10.23
2018-04-14T03:51:43.496Z,10.17
2018-04-14T03:53:10.702Z,10.13
2018-04-14T03:54:38.171Z,10.10
2018-04-14T03:56:06.468Z,10.09
2018-04-14T03:57:32.693Z,10.07
2018-04-14T03:59:00.042Z,10.06
2018-04-14T04:00:28.464Z,10.07
2018-04-14T04:01:54.734Z,10.11
2018-04-14T04:03:22.211Z,10.13
2018-04-14T04:04:50.474Z,10.16
2018-04-14T04:06:16.960Z,10.20
2018-04-14T04:07:44.228Z,10.19
2018-04-14T04:09:12.416Z,10.18
2018-04-14T04:10:39.691Z,10.18
2018-04-14T04:12:06.170Z,10.17
2018-04-14T04:13:33.499Z,10.15
2018-04-14T04:15:00.735Z,10.14
2018-04-14T04:16:28.213Z,10.14
2018-04-14T04:17:56.470Z,10.12
2018-04-14T04:19:22.710Z,10.11
2018-04-14T04:20:50.085Z,10.11
2018-04-14T04:22:18.385Z,10.12
2018-04-14T04:23:45.604Z,10.17
2018-04-14T04:25:11.821Z,10.23
2018-04-14T04:26:39.986Z,10.28
2018-04-14T04:28:07.187Z,10.33
2018-04-14T04:29:33.722Z,10.36
2018-04-14T04:31:01.878Z,10.39
2018-04-14T04:32:28.222Z,10.42
2018-04-14T04:33:55.651Z,10.44
2018-04-14T04:35:23.059Z,10.45
2018-04-14T04:36:50.320Z,10.45
2018-04-14T04:38:17.650Z,10.47
2018-04-14T04:39:44.907Z,10.49
2018-04-14T04:41:13.097Z,10.51
2018-04-14T04:42:39.219Z,10.52
2018-04-14T04:44:06.620Z,10.54
2018-04-14T04:45:34.030Z,10.57
2018-04-14T04:47:01.337Z,10.60
2018-04-14T04:48:28.783Z,10.63
2018-04-14T04:49:57.203Z,10.66
2018-04-14T04:51:23.639Z,10.67
2018-04-14T04:52:51.084Z,10.70
2018-04-14T04:54:19.412Z,10.72
2018-04-14T04:55:45.680Z,10.75
2018-04-14T04:57:12.863Z,10.77
2018-04-14T04:58:41.159Z,10.79
2018-04-14T05:00:07.383Z,10.80
2018-04-14T05:01:34.839Z,10.82
2018-04-14T05:03:02.334Z,10.83
2018-04-14T05:04:29.502Z,10.83
2018-04-14T05:05:56.683Z,10.84
2018-04-14T05:07:24.034Z,10.84
2018-04-14T05:08:51.245Z,10.82
2018-04-14T05:10:19.554Z,10.83
2018-04-14T05:11:46.740Z,10.84
2018-04-14T05:13:12.947Z,10.85
2018-04-14T05:14:40.071Z,10.87
2018-04-14T05:16:07.496Z,10.88
2018-04-14T05:17:36.048Z,10.90
2018-04-14T05:19:02.421Z,10.91
2018-04-14T05:20:30.655Z,10.92
2018-04-14T05:21:57.962Z,10.94
2018-04-14T05:23:24.322Z,10.94
2018-04-14T05:24:52.840Z,10.93
2018-04-14T05:26:19.204Z,10.93
2018-04-14T05:27:46.497Z,10.94
2018-04-14T05:29:14.876Z,10.95
2018-04-14T05:30:42.171Z,10.93
2018-04-14T05:32:09.669Z,10.91
2018-04-14T05:33:36.055Z,10.88
2018-04-14T05:35:03.411Z,10.85
2018-04-14T05:36:30.696Z,10.82
2018-04-14T05:37:57.964Z,10.78
2018-04-14T05:39:25.284Z,10.73
2018-04-14T05:40:53.703Z,10.67
2018-04-14T05:42:20.906Z,10.64
2018-04-14T05:43:47.148Z,10.59
2018-04-14T05:45:14.452Z,10.53
2018-04-14T05:46:41.692Z,10.52
2018-04-14T05:48:08.822Z,10.48
2018-04-14T05:49:36.057Z,10.45
2018-04-14T05:51:03.517Z,10.43
2018-04-14T05:53:57.646Z,10.31
2018-04-14T05:55:25.947Z,10.30
2018-04-14T05:56:53.365Z,10.25
2018-04-14T05:58:19.570Z,10.21
2018-04-14T05:59:47.900Z,10.19
2018-04-14T06:01:14.458Z,10.17
2018-04-14T06:02:41.562Z,10.13
2018-04-14T06:04:08.625Z,10.12
2018-04-14T06:05:36.930Z,10.11
2018-04-14T06:07:03.249Z,10.11
2018-04-14T06:08:30.456Z,10.12
2018-04-14T06:09:57.840Z,10.10
2018-04-14T06:11:24.976Z,10.09
2018-04-14T06:12:53.265Z,10.09
2018-04-14T06:14:20.626Z,10.08
2018-04-14T06:15:47.849Z,10.07
2018-04-14T06:17:15.202Z,10.07
2018-04-14T06:18:41.623Z,10.04
2018-04-14T06:20:08.624Z,9.99
2018-04-14T06:21:36.984Z,9.94
2018-04-14T06:23:04.292Z,9.90
2018-04-14T06:24:30.603Z,9.90
2018-04-14T06:25:58.098Z,9.84
2018-04-14T06:27:26.343Z,9.80
2018-04-14T06:28:52.561Z,9.82
2018-04-14T06:30:19.963Z,9.83
2018-04-14T06:31:47.326Z,9.86
2018-04-14T06:33:14.687Z,9.87
2018-04-14T06:34:41.946Z,9.85
2018-04-14T06:36:09.162Z,9.77
2018-04-14T06:37:37.563Z,9.72
2018-04-14T06:39:04.757Z,9.69
2018-04-14T06:40:31.094Z,9.68
2018-04-14T06:41:58.347Z,9.65
2018-04-14T06:43:25.643Z,9.61
2018-04-14T06:44:58.923Z,9.61
2018-04-14T06:46:20.045Z,9.61
2018-04-14T06:47:48.439Z,9.63
2018-04-14T06:49:14.672Z,9.60
2018-04-14T06:50:42.939Z,9.59
2018-04-14T06:52:08.974Z,9.56
2018-04-14T06:53:36.076Z,9.47
2018-04-14T06:55:04.278Z,9.41
2018-04-14T06:56:30.567Z,9.37
2018-04-14T06:57:59.031Z,9.36
2018-04-14T06:59:25.266Z,9.33
2018-04-14T07:00:53.651Z,9.33
2018-04-14T07:02:21.028Z,9.35
2018-04-14T07:03:48.358Z,9.37
2018-04-14T07:05:14.568Z,9.38
2018-04-14T07:06:42.003Z,9.36
2018-04-14T07:08:10.231Z,9.38
2018-04-14T07:09:36.458Z,9.35
2018-04-14T07:11:04.636Z,9.33
2018-04-14T07:12:32.100Z,9.32
2018-04-14T07:13:59.567Z,9.34
2018-04-14T07:15:25.595Z,9.31
2018-04-14T07:16:52.871Z,9.30
2018-04-14T07:18:21.300Z,9.30
2018-04-14T07:19:48.358Z,9.31
2018-04-14T07:21:14.549Z,9.33
2018-04-14T07:22:42.959Z,9.32
2018-04-14T07:24:08.980Z,9.29
2018-04-14T07:25:36.407Z,9.32
2018-04-14T07:27:04.666Z,9.35
2018-04-14T07:28:31.945Z,9.38
2018-04-14T07:29:58.305Z,9.42
2018-04-14T07:31:25.658Z,9.44
2018-04-14T07:32:53.934Z,9.46
2018-04-14T07:34:21.094Z,9.48
2018-04-14T07:35:47.450Z,9.50
2018-04-14T07:37:15.762Z,9.49
2018-04-14T07:38:43.008Z,9.51
2018-04-14T07:40:10.307Z,9.52
2018-04-14T07:41:36.592Z,9.52
2018-04-14T07:43:03.975Z,9.51
2018-04-14T07:44:31.282Z,9.51
2018-04-14T07:45:58.642Z,9.52
2018-04-14T07:47:25.872Z,9.53
2018-04-14T07:48:53.266Z,9.54
2018-04-14T07:50:20.492Z,9.56
2018-04-14T07:51:47.730Z,9.59
2018-04-14T07:53:14.963Z,9.62
2018-04-14T07:54:42.273Z,9.64
2018-04-14T07:56:09.475Z,9.62
2018-04-14T07:57:36.935Z,9.66
2018-04-14T07:59:04.094Z,9.66
2018-04-14T08:00:31.496Z,9.68
2018-04-14T08:01:58.681Z,9.69
2018-04-14T08:03:26.913Z,9.69
2018-04-14T08:04:53.002Z,9.69
2018-04-14T08:06:21.401Z,9.70
2018-04-14T08:07:47.796Z,9.72
2018-04-14T08:09:15.060Z,9.73
2018-04-14T08:10:42.291Z,9.74
2018-04-14T08:12:09.565Z,9.75
2018-04-14T08:13:36.852Z,9.71
2018-04-14T08:15:05.070Z,9.73
2018-04-14T08:16:31.265Z,9.76
2018-04-14T08:17:59.422Z,9.78
2018-04-14T08:19:25.846Z,9.81
2018-04-14T08:20:53.153Z,9.78
2018-04-14T08:22:20.604Z,9.75
2018-04-14T08:23:49.067Z,9.72
2018-04-14T08:25:15.256Z,9.70
2018-04-14T08:26:43.690Z,9.73
2018-04-14T08:28:09.864Z,9.70
2018-04-14T08:29:37.166Z,9.69
2018-04-14T08:31:04.467Z,9.63
2018-04-14T08:32:31.745Z,9.61
2018-04-14T08:33:59.226Z,9.60
2018-04-14T08:35:27.644Z,9.61
2018-04-14T08:36:53.879Z,9.64
2018-04-14T08:38:22.200Z,9.66
2018-04-14T08:39:49.595Z,9.68
2018-04-14T08:41:16.813Z,9.68
2018-04-14T08:42:42.877Z,9.68
2018-04-14T08:44:10.219Z,9.68
2018-04-14T08:45:38.739Z,9.69
2018-04-14T08:47:04.966Z,9.75
2018-04-14T08:48:33.247Z,9.77
2018-04-14T08:49:59.624Z,9.80
2018-04-14T08:51:27.887Z,9.82
2018-04-14T08:52:54.247Z,9.82
2018-04-14T08:54:21.554Z,9.81
2018-04-14T08:55:48.893Z,9.81
2018-04-14T08:57:16.428Z,9.79
2018-04-14T08:58:44.463Z,9.80
2018-04-14T09:00:11.503Z,9.76
2018-04-14T09:01:38.952Z,9.74
2018-04-14T09:03:05.040Z,9.75
2018-04-14T09:04:32.428Z,9.79
2018-04-14T09:06:00.498Z,9.85
2018-04-14T09:07:27.700Z,9.90
2018-04-14T09:08:54.095Z,9.93
2018-04-14T09:10:22.515Z,9.93
2018-04-14T09:11:49.716Z,9.97
2018-04-14T09:13:16.017Z,9.99
2018-04-14T09:14:43.310Z,9.99
2018-04-14T09:16:11.551Z,9.96
2018-04-14T09:17:37.863Z,9.94
2018-04-14T09:19:05.183Z,9.92
2018-04-14T09:20:32.510Z,9.93
2018-04-14T09:22:00.959Z,9.95
2018-04-14T09:23:28.100Z,9.97
2018-04-14T09:24:55.376Z,10.01
2018-04-14T09:26:21.798Z,10.04
2018-04-14T09:27:49.855Z,10.06
2018-04-14T09:29:16.184Z,10.11
2018-04-14T09:30:44.097Z,10.14
2018-04-14T09:32:10.198Z,10.13
2018-04-14T09:33:37.559Z,10.07
2018-04-14T09:35:04.823Z,10.07
2018-04-14T09:36:32.161Z,10.05
2018-04-14T09:38:00.500Z,10.08
2018-04-14T09:39:26.746Z,10.10
2018-04-14T09:40:54.068Z,10.11
2018-04-14T09:42:27.295Z,10.14
2018-04-14T09:43:49.523Z,10.12
2018-04-14T09:45:15.798Z,10.10
2018-04-14T09:46:43.048Z,10.10
2018-04-14T09:48:10.170Z,10.10
2018-04-14T09:49:38.505Z,10.10
2018-04-14T09:51:05.712Z,10.08
2018-04-14T09:52:32.046Z,10.10
2018-04-14T09:54:00.229Z,10.13
2018-04-14T09:55:26.531Z,10.14
2018-04-14T09:56:53.818Z,10.13
2018-04-14T09:58:21.054Z,10.15
2018-04-14T09:59:48.324Z,10.15
2018-04-14T10:01:16.812Z,10.14
2018-04-14T10:02:44.220Z,10.12
2018-04-14T10:04:11.174Z,10.12
2018-04-14T10:05:38.492Z,10.14
2018-04-14T10:07:04.877Z,10.14
2018-04-14T10:08:32.259Z,10.15
2018-04-14T10:09:59.306Z,10.17
2018-04-14T10:11:26.704Z,10.17
2018-04-14T10:12:54.065Z,10.20
2018-04-14T10:14:21.380Z,10.22
2018-04-14T10:15:48.735Z,10.23
2018-04-14T10:17:17.058Z,10.24
2018-04-14T10:18:44.561Z,10.26
2018-04-14T10:20:10.560Z,10.26
2018-04-14T10:21:38.833Z,10.27
2018-04-14T10:23:05.926Z,10.27
2018-04-14T10:24:33.227Z,10.26
2018-04-14T10:25:59.585Z,10.26
2018-04-14T10:27:27.739Z,10.26
2018-04-14T10:28:55.212Z,10.24
2018-04-14T10:30:21.730Z,10.24
2018-04-14T10:31:50.152Z,10.24
2018-04-14T10:33:17.398Z,10.22
2018-04-14T10:34:44.870Z,10.20
2018-04-14T10:36:10.908Z,10.20
2018-04-14T10:37:39.237Z,10.21
2018-04-14T10:39:06.418Z,10.23
2018-04-14T10:40:33.694Z,10.23
2018-04-14T10:41:59.973Z,10.24
2018-04-14T10:43:28.243Z,10.26
2018-04-14T10:44:54.375Z,10.29
2018-04-14T10:46:21.662Z,10.26
2018-04-14T10:47:49.023Z,10.27
2018-04-14T10:49:17.368Z,10.30
2018-04-14T10:50:44.712Z,10.29
2018-04-14T10:52:12.010Z,10.30
2018-04-14T10:53:38.069Z,10.25
2018-04-14T10:55:05.448Z,10.26
2018-04-14T10:56:32.764Z,10.29
2018-04-14T10:58:00.278Z,10.28
2018-04-14T10:59:28.733Z,10.26
2018-04-14T11:00:54.902Z,10.26
2018-04-14T11:02:22.127Z,10.27
2018-04-14T11:03:50.632Z,10.29
2018-04-14T11:05:16.588Z,10.28
2018-04-14T11:06:43.814Z,10.26
2018-04-14T11:08:12.211Z,10.25
2018-04-14T11:09:38.446Z,10.24
2018-04-14T11:11:05.816Z,10.25
2018-04-14T11:12:33.124Z,10.27
2018-04-14T11:14:01.658Z,10.27
2018-04-14T11:15:27.707Z,10.27
2018-04-14T11:16:54.906Z,10.29
2018-04-14T11:18:23.342Z,10.32
2018-04-14T11:19:49.711Z,10.34
2018-04-14T11:21:18.008Z,10.35
2018-04-14T11:22:44.313Z,10.36
2018-04-14T11:24:11.677Z,10.36
2018-04-14T11:25:38.630Z,10.35
2018-04-14T11:27:06.732Z,10.35
2018-04-14T11:28:33.071Z,10.34
2018-04-14T11:30:01.391Z,10.34
2018-04-14T11:31:28.885Z,10.31
2018-04-14T11:32:56.288Z,10.31
2018-04-14T11:34:22.448Z,10.29
2018-04-14T11:35:49.714Z,10.28
2018-04-14T11:37:17.069Z,10.28
2018-04-14T11:38:44.315Z,10.29
2018-04-14T11:40:11.771Z,10.24
2018-04-14T11:41:38.933Z,10.23
2018-04-14T11:43:07.277Z,10.24
2018-04-14T11:44:34.611Z,10.26
2018-04-14T11:46:01.038Z,10.28
2018-04-14T11:47:28.321Z,10.30
2018-04-14T11:48:55.529Z,10.31
2018-04-14T11:50:22.974Z,10.33
2018-04-14T11:51:51.247Z,10.34
2018-04-14T11:53:17.645Z,10.36
2018-04-14T11:54:50.793Z,10.37
2018-04-14T11:56:12.029Z,10.35
2018-04-14T11:57:40.132Z,10.33
2018-04-14T11:59:06.431Z,10.35
2018-04-14T12:00:33.590Z,10.35
2018-04-14T12:02:01.860Z,10.36
2018-04-14T12:03:28.262Z,10.35
2018-04-14T12:04:56.580Z,10.35
2018-04-14T12:06:22.982Z,10.37
2018-04-14T12:07:51.319Z,10.41
2018-04-14T12:09:18.737Z,10.43
2018-04-14T12:10:44.454Z,10.44
2018-04-14T12:12:11.751Z,10.46
2018-04-14T12:13:39.049Z,10.44
2018-04-14T12:15:06.389Z,10.47
2018-04-14T12:16:33.849Z,10.45
2018-04-14T12:18:00.989Z,10.46
2018-04-14T12:19:29.358Z,10.47
2018-04-14T12:20:55.217Z,10.51
2018-04-14T12:22:22.644Z,10.53
2018-04-14T12:23:49.922Z,10.58
2018-04-14T12:25:17.032Z,10.59
2018-04-14T12:26:44.327Z,10.61
2018-04-14T12:28:12.319Z,10.62
2018-04-14T12:29:39.704Z,10.61
2018-04-14T12:31:06.141Z,10.61
2018-04-14T12:32:32.833Z,10.62
2018-04-14T12:34:00.404Z,10.59
2018-04-14T12:35:27.613Z,10.61
2018-04-14T12:36:55.038Z,10.59
2018-04-14T12:38:22.365Z,10.63
2018-04-14T12:39:50.351Z,10.63
2018-04-14T12:41:17.574Z,10.60
2018-04-14T12:42:44.783Z,10.58
2018-04-14T12:44:10.978Z,10.59
2018-04-14T12:45:39.295Z,10.59
2018-04-14T12:47:06.745Z,10.61
2018-04-14T12:48:33.040Z,10.63
2018-04-14T12:50:00.403Z,10.63
2018-04-14T12:51:27.821Z,10.64
2018-04-14T12:52:55.232Z,10.63
2018-04-14T12:54:23.590Z,10.58
2018-04-14T12:55:49.832Z,10.54
2018-04-14T12:57:17.254Z,10.53
2018-04-14T12:58:44.525Z,10.53
2018-04-14T13:00:11.814Z,10.53
2018-04-14T13:01:38.990Z,10.54
2018-04-14T13:03:06.377Z,10.50
2018-04-14T13:04:34.706Z,10.50
2018-04-14T13:06:01.165Z,10.48
2018-04-14T13:07:28.483Z,10.47
2018-04-14T13:08:55.964Z,10.41
2018-04-14T13:10:23.242Z,10.38
2018-04-14T13:11:50.574Z,10.36
2018-04-14T13:13:17.742Z,10.33
2018-04-14T13:14:45.108Z,10.32
2018-04-14T13:16:12.293Z,10.34
2018-04-14T13:17:39.451Z,10.35
2018-04-14T13:19:06.704Z,10.37
2018-04-14T13:20:35.132Z,10.39
2018-04-14T13:22:01.459Z,10.39
2018-04-14T13:23:29.712Z,10.36
2018-04-14T13:24:55.940Z,10.36
2018-04-14T13:26:23.134Z,10.34
2018-04-14T13:27:51.591Z,10.35
2018-04-14T13:29:18.805Z,10.38
2018-04-14T13:30:45.174Z,10.38
2018-04-14T13:32:12.443Z,10.38
2018-04-14T13:33:39.674Z,10.37
2018-04-14T13:35:07.909Z,10.36
2018-04-14T13:36:35.041Z,10.31
2018-04-14T13:38:01.237Z,10.31
2018-04-14T13:39:28.026Z,10.29
2018-04-14T13:40:55.004Z,10.24
2018-04-14T13:42:23.167Z,10.18
2018-04-14T13:43:49.473Z,10.18
2018-04-14T13:45:17.733Z,10.22
2018-04-14T13:46:43.940Z,10.23
2018-04-14T13:48:12.228Z,10.20
2018-04-14T13:49:38.562Z,10.17
2018-04-14T13:51:05.792Z,10.21
2018-04-14T13:52:33.105Z,10.21
2018-04-14T13:54:00.292Z,10.21
2018-04-14T13:55:28.637Z,10.22
2018-04-14T13:56:55.474Z,10.17
2018-04-14T13:58:21.678Z,10.16
2018-04-14T13:59:48.741Z,10.18
2018-04-14T14:01:16.108Z,10.19
2018-04-14T14:02:44.339Z,10.18
2018-04-14T14:04:11.331Z,10.17
2018-04-14T14:05:38.573Z,10.20
2018-04-14T14:07:04.620Z,10.23
2018-04-14T14:08:32.860Z,10.25
2018-04-14T14:09:59.118Z,10.28
2018-04-14T14:11:27.393Z,10.31
2018-04-14T14:12:54.668Z,10.32
2018-04-14T14:14:21.052Z,10.31
2018-04-14T14:15:47.941Z,10.31
2018-04-14T14:17:15.061Z,10.31
2018-04-14T14:18:43.303Z,10.26
2018-04-14T14:20:09.411Z,10.25
2018-04-14T14:21:37.754Z,10.27
2018-04-14T14:23:04.165Z,10.28
2018-04-14T14:24:31.172Z,10.30
2018-04-14T14:25:59.481Z,10.30
2018-04-14T14:27:25.633Z,10.29
2018-04-14T14:28:54.138Z,10.26
2018-04-14T14:30:20.247Z,10.26
2018-04-14T14:31:48.665Z,10.27
2018-04-14T14:33:15.915Z,10.26
2018-04-14T14:34:43.302Z,10.23
2018-04-14T14:36:10.549Z,10.22
2018-04-14T14:37:37.023Z,10.22
2018-04-14T14:39:05.118Z,10.21
2018-04-14T14:40:31.529Z,10.17
2018-04-14T14:41:59.815Z,10.16
2018-04-14T14:43:26.128Z,10.13
2018-04-14T14:44:53.394Z,10.13
2018-04-14T14:46:20.526Z,10.15
2018-04-14T14:47:47.977Z,10.14
2018-04-14T14:49:15.397Z,10.10
2018-04-14T14:50:41.887Z,10.07
2018-04-14T14:52:08.934Z,10.11
2018-04-14T14:53:36.148Z,10.13
2018-04-14T14:55:03.397Z,10.17
2018-04-14T14:56:30.711Z,10.19
2018-04-14T14:57:59.182Z,10.20
2018-04-14T14:59:25.523Z,10.18
2018-04-14T15:00:52.752Z,10.15
2018-04-14T15:02:21.135Z,10.12
2018-04-14T15:03:47.243Z,10.10
2018-04-14T15:05:14.695Z,10.11
2018-04-14T15:06:41.951Z,10.14
2018-04-14T15:08:10.112Z,10.14
2018-04-14T15:09:37.539Z,10.16
2018-04-14T15:11:03.921Z,10.17
2018-04-14T15:12:31.108Z,10.18
2018-04-14T15:13:59.386Z,10.17
2018-04-14T15:15:25.818Z,10.15
2018-04-14T15:16:53.971Z,10.09
2018-04-14T15:18:20.414Z,10.09
2018-04-14T15:19:48.634Z,10.09
2018-04-14T15:21:14.967Z,10.10
2018-04-14T15:22:41.877Z,10.12
2018-04-14T15:24:09.028Z,10.10
2018-04-14T15:25:36.457Z,10.05
2018-04-14T15:27:03.646Z,9.99
2018-04-14T15:28:31.984Z,10.00
2018-04-14T15:29:58.287Z,9.96
2018-04-14T15:31:25.723Z,9.95
2018-04-14T15:32:52.917Z,9.93
2018-04-14T15:34:21.104Z,9.90
2018-04-14T15:35:48.329Z,9.87
2018-04-14T15:37:14.526Z,9.87
2018-04-14T15:38:41.809Z,9.85
2018-04-14T15:40:09.709Z,9.80
2018-04-14T15:41:35.944Z,9.81
2018-04-14T15:43:03.215Z,9.79
2018-04-14T15:44:31.276Z,9.76
2018-04-14T15:45:58.617Z,9.71
2018-04-14T15:47:24.898Z,9.69
2018-04-14T15:48:53.434Z,9.72
2018-04-14T15:50:19.000Z,9.72
2018-04-14T15:51:46.278Z,9.72
2018-04-14T15:53:14.243Z,9.73
2018-04-14T15:54:39.877Z,9.72
2018-04-14T15:56:08.522Z,9.73
2018-04-14T15:57:34.779Z,9.72
2018-04-14T15:59:02.026Z,9.74
2018-04-14T16:00:29.202Z,9.74
2018-04-14T16:01:56.478Z,9.73
2018-04-14T16:03:23.696Z,9.74
2018-04-14T16:04:51.874Z,9.77
2018-04-14T16:06:19.307Z,9.76
2018-04-14T16:07:45.483Z,9.73
2018-04-14T16:09:13.667Z,9.72
2018-04-14T16:10:40.947Z,9.75
2018-04-14T16:12:07.007Z,9.77
2018-04-14T16:13:34.027Z,9.81
2018-04-14T16:15:01.304Z,9.82
2018-04-14T16:16:29.376Z,9.84
2018-04-14T16:17:55.510Z,9.85
2018-04-14T16:19:22.879Z,9.87
2018-04-14T16:20:50.117Z,9.89
2018-04-14T16:22:17.473Z,9.90
2018-04-14T16:23:45.730Z,9.91
2018-04-14T16:25:12.747Z,9.90
2018-04-14T16:26:39.906Z,9.89
2018-04-14T16:28:07.274Z,9.91
2018-04-14T16:29:33.015Z,9.90
2018-04-14T16:31:00.970Z,9.91
2018-04-14T16:32:27.335Z,9.92
2018-04-14T16:33:54.461Z,9.93
2018-04-14T16:35:22.911Z,9.93
2018-04-14T16:36:50.305Z,9.93
2018-04-14T16:38:17.700Z,9.95
2018-04-14T16:39:43.817Z,9.96
2018-04-14T16:41:10.991Z,9.97
2018-04-14T16:42:38.269Z,9.98
2018-04-14T16:44:05.399Z,9.97
2018-04-14T16:45:32.758Z,9.95
2018-04-14T16:47:01.057Z,9.94
2018-04-14T16:48:26.624Z,9.96
2018-04-14T16:49:54.918Z,9.99
2018-04-14T16:51:20.932Z,9.99
2018-04-14T16:52:48.249Z,9.99
2018-04-14T16:54:16.343Z,9.97
2018-04-14T16:55:42.614Z,9.99
2018-04-14T16:57:09.849Z,10.00
2018-04-14T16:58:37.743Z,9.99
2018-04-14T17:00:04.799Z,10.00
2018-04-14T17:01:31.066Z,9.99
2018-04-14T17:02:59.337Z,9.99
2018-04-14T17:04:25.689Z,10.00
2018-04-14T17:05:53.986Z,10.01
2018-04-14T17:07:20.442Z,10.00
2018-04-14T17:08:48.567Z,10.00
2018-04-14T17:10:14.992Z,10.01
2018-04-14T17:11:43.301Z,10.01
2018-04-14T17:13:09.504Z,10.00
2018-04-14T17:14:37.932Z,10.01
2018-04-14T17:16:04.238Z,10.00
2018-04-14T17:17:32.150Z,9.99
2018-04-14T17:18:58.504Z,9.99
2018-04-14T17:20:26.926Z,10.00
2018-04-14T17:21:54.381Z,9.99
2018-04-14T17:23:20.644Z,9.99
2018-04-14T17:24:48.094Z,10.00
2018-04-14T17:26:15.481Z,10.01
2018-04-14T17:27:42.602Z,10.01
2018-04-14T17:29:09.822Z,10.00
2018-04-14T17:30:38.114Z,10.01
2018-04-14T17:32:04.517Z,10.00
2018-04-14T17:33:31.802Z,10.02
2018-04-14T17:34:59.129Z,10.04
2018-04-14T17:36:27.577Z,10.05
2018-04-14T17:37:54.035Z,10.06
2018-04-14T17:39:21.033Z,10.06
2018-04-14T17:40:48.444Z,10.08
2018-04-14T17:42:15.769Z,10.09
2018-04-14T17:43:43.171Z,10.10
2018-04-14T17:45:10.223Z,10.10
2018-04-14T17:46:37.594Z,10.10
2018-04-14T17:48:05.496Z,10.11
2018-04-14T17:49:32.845Z,10.11
2018-04-14T17:50:59.156Z,10.12
2018-04-14T17:52:26.462Z,10.12
2018-04-14T17:53:53.871Z,10.13
2018-04-14T17:55:20.907Z,10.13
2018-04-14T17:56:49.239Z,10.13
2018-04-14T17:58:15.476Z,10.13
2018-04-14T17:59:43.826Z,10.14
2018-04-14T18:01:10.240Z,10.13
2018-04-14T18:02:37.541Z,10.13
2018-04-14T18:04:05.633Z,10.13
2018-04-14T18:05:31.991Z,10.14
2018-04-14T18:06:59.286Z,10.15
2018-04-14T18:08:26.605Z,10.15
2018-04-14T18:09:54.967Z,10.15
2018-04-14T18:11:21.163Z,10.15
2018-04-14T18:12:49.391Z,10.16
2018-04-14T18:14:15.655Z,10.16
2018-04-14T18:15:42.816Z,10.17
2018-04-14T18:17:11.008Z,10.18
2018-04-14T18:18:38.122Z,10.19
2018-04-14T18:20:04.193Z,10.19
2018-04-14T18:21:31.596Z,10.19
2018-04-14T18:23:00.035Z,10.20
2018-04-14T18:24:27.385Z,10.19
2018-04-14T18:25:53.625Z,10.19
2018-04-14T18:27:21.005Z,10.19
2018-04-14T18:28:48.366Z,10.20
2018-04-14T18:30:15.612Z,10.21
2018-04-14T18:31:43.868Z,10.22
2018-04-14T18:33:10.041Z,10.21
2018-04-14T18:34:38.013Z,10.22
2018-04-14T18:36:04.286Z,10.21
2018-04-14T18:37:32.723Z,10.22
2018-04-14T18:38:59.245Z,10.24
2018-04-14T18:40:26.385Z,10.23
2018-04-14T18:41:54.791Z,10.22
2018-04-14T18:43:21.140Z,10.23
2018-04-14T18:44:48.489Z,10.23
2018-04-14T18:46:15.547Z,10.22
2018-04-14T18:47:42.631Z,10.20
2018-04-14T18:49:10.961Z,10.16
2018-04-14T18:50:38.380Z,10.15
2018-04-14T18:52:05.743Z,10.15
2018-04-14T18:53:33.275Z,10.15
2018-04-14T18:55:00.349Z,10.16
2018-04-14T18:56:26.482Z,10.17
2018-04-14T18:57:53.682Z,10.18